Time;durP1;ratioP1;P1;durP2;ratioP2;P2;SDS_P1;SDS_P2;PMS_P1;PMS_P2;Temp;Humidity;BMP_temperature;BMP_pressure;BME280_temperature;BME280_humidity;BME280_pressure;Samples;Min_cycle;Max_cycle;Signal;HPM_P1;HPM_P2
2023/08/09 00:02:45;;;;;;;;;;;;;;;15.89;78.88;96121.19;6423301;27;20038;-64
2023/08/09 00:05:48;;;;;;;12.63;5.60;;;;;;;15.85;79.23;96108.38;6423028;27;19918;-65
2023/08/09 00:08:49;;;;;;;11.80;5.70;;;;;;;15.84;79.46;96112.03;6421917;27;20042;-66
2023/08/09 00:11:53;;;;;;;;;;;;;;;15.88;79.13;96118.69;6422502;27;20057;-65
2023/08/09 00:14:57;;;;;;;6.72;3.97;;;;;;;16.02;79.21;96120.84;6422989;27;20091;-65
2023/08/09 00:18:01;;;;;;;7.07;4.30;;;;;;;16.10;79.28;96120.88;6421914;27;20057;-65
2023/08/09 00:21:03;;;;;;;5.63;4.13;;;;;;;16.13;79.38;96115.25;6403860;27;20042;-65
2023/08/09 00:24:10;;;;;;;7.70;4.10;;;;;;;16.12;79.64;96118.09;6422589;27;20035;-65
2023/08/09 00:27:11;;;;;;;7.38;4.20;;;;;;;16.09;80.10;96121.88;6422670;27;20403;-65
2023/08/09 00:30:13;;;;;;;4.72;4.03;;;;;;;16.21;79.93;96126.97;6421749;27;20057;-65
2023/08/09 00:33:17;;;;;;;10.55;3.63;;;;;;;16.25;80.04;96130.97;6402920;27;20083;-65
2023/08/09 00:36:19;;;;;;;11.15;4.15;;;;;;;16.28;79.87;96125.38;6421129;27;20064;-65
2023/08/09 00:39:21;;;;;;;11.25;4.82;;;;;;;16.35;79.95;96127.25;6421750;27;20133;-65
2023/08/09 00:42:25;;;;;;;11.18;4.70;;;;;;;16.37;79.89;96119.97;6422084;27;20045;-64
2023/08/09 00:45:29;;;;;;;10.57;4.72;;;;;;;16.39;80.16;96115.34;6421069;27;20051;-64
2023/08/09 00:48:30;;;;;;;9.15;4.07;;;;;;;16.39;80.34;96128.63;6422022;27;20041;-64
2023/08/09 00:51:31;;;;;;;8.35;4.50;;;;;;;16.41;80.08;96124.97;6403040;27;20535;-65
2023/08/09 00:54:33;;;;;;;6.78;4.22;;;;;;;16.41;80.09;96131.09;6421478;27;20038;-65
2023/08/09 00:57:39;;;;;;;7.88;4.38;;;;;;;16.47;80.02;96127.81;6421907;27;20038;-65
2023/08/09 01:00:42;;;;;;;;;;;;;;;16.48;79.44;96126.84;6420941;27;20042;-65
2023/08/09 01:03:47;;;;;;;3.70;2.97;;;;;;;16.50;79.75;96127.53;6420662;27;19914;-65
2023/08/09 01:07:04;;;;;;;3.53;2.97;;;;;;;16.55;79.76;96138.50;6402033;27;20046;-64
2023/08/09 01:10:24;;;;;;;4.13;2.60;;;;;;;16.68;79.21;96139.94;6420622;27;20042;-65
2023/08/09 01:13:28;;;;;;;4.85;3.22;;;;;;;16.84;78.57;96137.41;6420801;27;20050;-65
2023/08/09 01:16:31;;;;;;;5.00;3.47;;;;;;;16.86;78.20;96138.09;6420858;27;20039;-65
2023/08/09 01:19:41;;;;;;;3.22;2.92;;;;;;;17.02;77.35;96142.69;6420268;27;20043;-65
2023/08/09 01:22:53;;;;;;;3.33;2.95;;;;;;;17.06;76.75;96136.88;6420259;27;20072;-64
2023/08/09 01:25:55;;;;;;;2.92;2.47;;;;;;;17.08;76.63;96138.56;6421100;27;20041;-66
2023/08/09 01:28:58;;;;;;;2.97;2.60;;;;;;;17.08;76.46;96143.88;6420333;27;20068;-65
2023/08/09 01:32:02;;;;;;;3.40;2.47;;;;;;;17.05;76.56;96137.88;6421077;27;20042;-65
2023/08/09 01:35:04;;;;;;;4.10;2.63;;;;;;;17.10;76.54;96132.13;6393839;27;20049;-65
2023/08/09 01:38:13;;;;;;;3.08;2.78;;;;;;;17.17;76.48;96140.28;6394467;27;20095;-65
2023/08/09 01:41:15;;;;;;;4.15;3.13;;;;;;;17.21;76.31;96138.94;6394781;27;20191;-65
2023/08/09 01:44:20;;;;;;;3.47;2.95;;;;;;;17.22;76.11;96133.50;6395344;27;20030;-65
2023/08/09 01:47:27;;;;;;;3.75;3.03;;;;;;;17.29;75.61;96141.66;6395197;27;20054;-64
2023/08/09 01:50:28;;;;;;;3.08;2.15;;;;;;;17.30;75.60;96138.03;6394622;27;20051;-64
2023/08/09 01:53:29;;;;;;;2.35;2.15;;;;;;;17.34;75.30;96139.34;6395040;27;20054;-64
2023/08/09 01:56:34;;;;;;;4.72;2.50;;;;;;;17.41;74.76;96147.53;6394800;27;20047;-64
2023/08/09 01:59:38;;;;;;;2.88;2.28;;;;;;;17.40;74.55;96149.34;6393475;27;20047;-65
2023/08/09 02:02:39;;;;;;;4.80;2.72;;;;;;;17.37;74.30;96149.69;6394466;27;20080;-65
2023/08/09 02:05:43;;;;;;;12.02;3.60;;;;;;;17.36;74.13;96147.19;6394276;27;20425;-64
2023/08/09 02:08:47;;;;;;;9.15;3.65;;;;;;;17.35;74.35;96151.66;6399288;27;20058;-66
2023/08/09 02:11:48;;;;;;;11.73;4.00;;;;;;;17.38;74.17;96156.69;6399219;27;20039;-65
2023/08/09 02:14:52;;;;;;;9.63;3.65;;;;;;;17.45;74.22;96151.53;6399489;27;20046;-65
2023/08/09 02:17:58;;;;;;;11.52;3.65;;;;;;;17.48;73.90;96152.06;6399698;27;20135;-66
2023/08/09 02:21:02;;;;;;;6.68;2.70;;;;;;;17.50;73.85;96144.75;6399525;27;20516;-64
2023/08/09 02:24:06;;;;;;;7.70;2.65;;;;;;;17.54;73.88;96165.72;6399470;27;20042;-65
2023/08/09 02:27:11;;;;;;;7.25;2.88;;;;;;;17.62;73.35;96163.09;6398549;27;20066;-65
2023/08/09 02:30:12;;;;;;;8.55;2.53;;;;;;;17.57;73.58;96173.38;6398614;27;20047;-65
2023/08/09 02:33:14;;;;;;;10.73;3.05;;;;;;;17.58;73.74;96167.03;6398555;27;20042;-65
2023/08/09 02:36:17;;;;;;;8.10;2.63;;;;;;;17.57;73.92;96176.03;6405835;27;20053;-64
2023/08/09 02:39:20;;;;;;;4.88;1.60;;;;;;;17.64;73.69;96177.06;6405620;27;20054;-65
2023/08/09 02:42:24;;;;;;;2.80;1.50;;;;;;;17.72;73.27;96169.13;6424931;27;20147;-65
2023/08/09 02:45:25;;;;;;;2.97;1.85;;;;;;;17.78;73.33;96173.81;6424742;27;20045;-65
2023/08/09 02:48:26;;;;;;;4.25;2.38;;;;;;;17.81;73.34;96170.84;6423931;27;20097;-66
2023/08/09 02:51:27;;;;;;;6.85;2.10;;;;;;;17.84;73.11;96177.66;6405655;27;20046;-65
2023/08/09 02:54:31;;;;;;;;;;;;;;;17.86;72.58;96176.50;6425358;27;20414;-64
2023/08/09 02:57:37;;;;;;;5.70;2.58;;;;;;;17.77;73.05;96177.44;6424334;27;19920;-65
2023/08/09 03:00:41;;;;;;;6.07;3.20;;;;;;;17.70;73.78;96184.41;6424646;27;20499;-64
2023/08/09 03:03:43;;;;;;;7.43;2.97;;;;;;;17.75;73.65;96190.09;6423352;27;20054;-65
2023/08/09 03:06:44;;;;;;;5.50;2.85;;;;;;;17.82;73.60;96190.28;6423304;27;20182;-64
2023/08/09 03:09:49;;;;;;;5.35;2.40;;;;;;;17.90;73.13;96185.00;6423661;27;20053;-65
2023/08/09 03:12:53;;;;;;;8.13;3.20;;;;;;;17.97;73.27;96199.31;6423444;27;20408;-65
2023/08/09 03:15:57;;;;;;;4.70;2.80;;;;;;;18.08;73.05;96206.16;6423527;27;20098;-65
2023/08/09 03:19:03;;;;;;;4.05;3.00;;;;;;;18.26;72.72;96198.91;6405493;27;20038;-65
2023/08/09 03:22:07;;;;;;;4.18;2.53;;;;;;;18.47;72.44;96213.59;6423931;27;20449;-65
2023/08/09 03:25:09;;;;;;;3.92;2.78;;;;;;;18.58;71.48;96207.94;6422935;27;20040;-65
2023/08/09 03:28:13;;;;;;;4.28;3.35;;;;;;;18.61;70.84;96223.59;6423066;27;20046;-65
2023/08/09 03:31:22;;;;;;;8.27;5.55;;;;;;;18.66;70.44;96228.44;6423735;27;20125;-64
2023/08/09 03:34:30;;;;;;;7.88;5.82;;;;;;;18.69;69.95;96236.91;6423564;27;20049;-64
2023/08/09 03:37:35;;;;;;;14.30;9.35;;;;;;;18.72;69.05;96236.59;6405598;27;20042;-65
2023/08/09 03:40:39;;;;;;;12.20;8.10;;;;;;;18.73;69.13;96248.91;6422862;27;20072;-65
2023/08/09 03:43:41;;;;;;;9.00;5.70;;;;;;;18.67;68.93;96249.56;6422998;27;20174;-65
2023/08/09 03:46:44;;;;;;;5.63;4.07;;;;;;;18.68;68.84;96245.88;6422215;27;20057;-65
2023/08/09 03:49:48;;;;;;;4.90;3.83;;;;;;;18.81;68.51;96256.94;6423115;27;20422;-65
2023/08/09 03:52:53;;;;;;;9.63;4.40;;;;;;;18.90;68.12;96249.78;6423155;27;20030;-66
2023/08/09 03:55:54;;;;;;;13.38;8.30;;;;;;;18.88;68.17;96243.78;6422585;27;20503;-65
2023/08/09 03:58:56;;;;;;;8.23;5.57;;;;;;;19.00;67.73;96249.63;6422088;27;20038;-65
2023/08/09 04:01:58;;;;;;;6.97;4.30;;;;;;;19.01;67.36;96246.78;6403973;27;20397;-66
2023/08/09 04:05:00;;;;;;;5.85;4.28;;;;;;;19.01;67.66;96261.94;6403892;27;20066;-66
2023/08/09 04:08:06;;;;;;;7.33;4.37;;;;;;;18.92;67.27;96246.94;6422257;27;20245;-65
2023/08/09 04:11:12;;;;;;;4.03;3.45;;;;;;;18.88;67.90;96256.28;6422939;27;20049;-65
2023/08/09 04:14:16;;;;;;;5.30;3.22;;;;;;;18.97;68.06;96255.28;6423004;27;20476;-65
2023/08/09 04:17:17;;;;;;;4.97;3.45;;;;;;;19.06;68.17;96259.63;6421808;27;20060;-65
2023/08/09 04:20:19;;;;;;;4.05;2.70;;;;;;;18.90;68.71;96259.59;6422574;27;20190;-65
2023/08/09 04:23:23;;;;;;;3.00;2.53;;;;;;;18.62;70.18;96267.88;6422597;27;20043;-65
2023/08/09 04:26:27;;;;;;;2.20;2.00;;;;;;;18.45;71.18;96268.84;6422507;27;20038;-65
2023/08/09 04:29:30;;;;;;;2.60;1.77;;;;;;;18.37;71.93;96264.31;6421682;27;20038;-65
2023/08/09 04:32:32;;;;;;;2.60;2.10;;;;;;;18.29;72.19;96265.16;6422456;27;20042;-66
2023/08/09 04:35:42;;;;;;;2.60;2.25;;;;;;;18.24;72.59;96278.13;6422296;27;20492;-65
2023/08/09 04:38:46;;;;;;;9.05;2.85;;;;;;;18.28;73.24;96275.97;6422185;27;20054;-65
2023/08/09 04:41:47;;;;;;;3.83;3.42;;;;;;;18.19;74.00;96288.41;6422123;27;20132;-65
2023/08/09 04:44:51;;;;;;;7.28;4.50;;;;;;;18.10;74.87;96289.38;6422081;27;20465;-65
2023/08/09 04:47:53;;;;;;;7.93;4.50;;;;;;;17.94;75.33;96293.63;6421498;27;20057;-65
2023/08/09 04:50:54;;;;;;;6.35;4.80;;;;;;;17.88;75.62;96299.59;6402833;27;20538;-65
2023/08/09 04:53:58;;;;;;;7.50;4.63;;;;;;;17.98;75.68;96293.34;6421496;27;20053;-66
2023/08/09 04:57:03;;;;;;;5.25;4.00;;;;;;;18.29;75.93;96299.78;6421814;27;20199;-65
2023/08/09 05:00:10;;;;;;;7.68;3.40;;;;;;;18.42;75.79;96298.47;6402054;27;20052;-65
2023/08/09 05:03:13;;;;;;;5.00;3.60;;;;;;;18.40;75.06;96301.31;6421666;27;20034;-65
2023/08/09 05:06:15;;;;;;;;;;;;;;;18.39;74.85;96311.09;6421920;27;20065;-65
2023/08/09 05:09:18;;;;;;;;;;;;;;;18.29;74.64;96314.94;6422017;27;20058;-65
2023/08/09 05:27:15;;;;;;;7.95;3.95;;;;;;;18.31;76.61;96334.22;6267248;27;1488044;-68
2023/08/09 05:30:20;;;;;;;4.85;3.40;;;;;;;18.26;77.25;96342.72;6290672;28;20175;-70
2023/08/09 05:33:24;;;;;;;8.43;3.42;;;;;;;18.27;77.81;96348.88;6290503;28;20139;-69
2023/08/09 05:36:25;;;;;;;4.70;2.85;;;;;;;18.18;77.84;96350.66;6271878;28;20052;-72
2023/08/09 05:39:32;;;;;;;2.15;2.00;;;;;;;18.04;78.14;96359.25;6289926;28;20047;-72
2023/08/09 05:42:36;;;;;;;;;;;;;;;17.91;77.75;96371.13;6290569;28;20230;-71
2023/08/09 05:45:37;;;;;;;2.75;1.55;;;;;;;17.71;79.18;96378.47;6271540;28;19917;-73
2023/08/09 05:48:43;;;;;;;1.55;1.02;;;;;;;17.66;79.38;96377.25;6289923;28;20488;-71
2023/08/09 05:51:47;;;;;;;2.90;1.00;;;;;;;17.53;79.65;96387.50;6290118;28;20407;-72
2023/08/09 05:54:53;;;;;;;2.00;0.93;;;;;;;17.40;79.79;96388.69;6289566;28;20037;-71
2023/08/09 05:57:57;;;;;;;2.40;0.93;;;;;;;17.36;79.97;96398.00;6289799;28;20040;-71
2023/08/09 06:00:58;;;;;;;3.35;1.20;;;;;;;17.32;80.09;96406.41;6289515;28;20049;-69
2023/08/09 06:04:02;;;;;;;1.83;1.00;;;;;;;17.31;79.86;96408.25;6289430;28;20049;-69
2023/08/09 06:07:07;;;;;;;2.40;1.20;;;;;;;17.31;79.23;96416.22;6289446;28;20037;-68
2023/08/09 06:10:08;;;;;;;2.22;1.20;;;;;;;17.29;79.26;96423.50;6288983;28;20047;-69
2023/08/09 06:13:12;;;;;;;1.63;1.40;;;;;;;17.20;79.61;96424.44;6289275;28;20539;-69
2023/08/09 06:16:13;;;;;;;1.40;1.30;;;;;;;17.23;79.69;96434.75;6289243;28;20534;-69
2023/08/09 06:19:23;;;;;;;2.50;1.33;;;;;;;17.26;79.35;96439.78;6289137;28;20044;-68
2023/08/09 06:22:27;;;;;;;1.75;1.33;;;;;;;17.29;79.58;96442.13;6288987;28;20036;-69
2023/08/09 06:25:31;;;;;;;2.55;1.60;;;;;;;17.27;78.96;96441.47;6296040;28;20052;-67
2023/08/09 06:28:32;;;;;;;2.42;1.92;;;;;;;17.15;78.90;96447.97;6297048;28;20074;-68
2023/08/09 06:31:37;;;;;;;2.58;2.35;;;;;;;17.17;79.15;96451.31;6297140;28;20127;-68
2023/08/09 06:34:40;;;;;;;3.25;2.15;;;;;;;17.13;78.98;96457.94;6297085;28;20041;-68
2023/08/09 06:37:49;;;;;;;2.92;2.65;;;;;;;17.18;79.38;96458.28;6296695;28;20048;-69
2023/08/09 06:40:55;;;;;;;3.75;2.25;;;;;;;17.24;79.27;96463.03;6297142;28;20411;-69
2023/08/09 06:44:01;;;;;;;3.30;3.00;;;;;;;17.39;79.70;96461.50;6297070;28;20487;-67
2023/08/09 06:47:03;;;;;;;5.47;2.78;;;;;;;17.50;79.10;96474.59;6296254;28;20085;-68
2023/08/09 06:50:05;;;;;;;5.43;3.05;;;;;;;17.37;79.09;96474.13;6296590;28;20044;-69
2023/08/09 06:53:07;;;;;;;10.25;6.85;;;;;;;17.24;79.72;96479.00;6296440;28;20419;-69
2023/08/09 06:56:11;;;;;;;19.30;13.93;;;;;;;17.24;80.14;96476.34;6296460;28;20052;-70
2023/08/09 06:59:17;;;;;;;25.40;15.13;;;;;;;17.16;80.29;96486.88;6296667;28;20045;-70
2023/08/09 07:02:21;;;;;;;18.40;14.68;;;;;;;17.14;80.54;96494.16;6296561;28;20040;-70
2023/08/09 07:05:24;;;;;;;25.50;15.48;;;;;;;17.08;80.66;96489.44;6296283;28;20037;-70
2023/08/09 07:08:26;;;;;;;20.50;14.02;;;;;;;17.03;80.38;96488.03;6278415;28;20094;-69
2023/08/09 07:11:29;;;;;;;12.98;8.90;;;;;;;16.99;80.38;96505.28;6296258;28;20041;-70
2023/08/09 07:14:36;;;;;;;14.75;8.88;;;;;;;16.98;80.09;96506.25;6296210;28;20057;-69
2023/08/09 07:17:41;;;;;;;15.23;8.70;;;;;;;16.87;80.24;96514.47;6296329;28;20115;-70
2023/08/09 07:20:42;;;;;;;14.57;8.57;;;;;;;16.81;80.70;96504.41;6296587;28;20114;-68
2023/08/09 07:23:43;;;;;;;7.78;5.47;;;;;;;16.93;80.45;96518.31;6277657;28;20133;-70
2023/08/09 07:26:51;;;;;;;7.65;5.00;;;;;;;16.99;80.01;96521.25;6295991;28;20052;-70
2023/08/09 07:29:54;;;;;;;;;;;;;;;16.95;79.86;96535.78;6295660;28;20047;-68
2023/08/09 07:33:01;;;;;;;5.03;3.20;;;;;;;16.89;80.10;96539.03;6295861;28;20014;-69
2023/08/09 07:36:09;;;;;;;4.40;3.53;;;;;;;16.93;80.28;96543.09;6295911;28;20049;-69
2023/08/09 07:39:14;;;;;;;3.42;2.97;;;;;;;16.97;79.62;96541.81;6295188;28;20176;-69
2023/08/09 07:42:19;;;;;;;4.38;3.30;;;;;;;16.97;80.04;96563.06;6296096;28;20079;-69
2023/08/09 07:45:23;;;;;;;3.17;2.65;;;;;;;17.04;79.57;96564.16;6295663;28;20188;-70
2023/08/09 07:48:30;;;;;;;3.17;2.28;;;;;;;17.03;79.82;96573.09;6295461;28;20109;-69
2023/08/09 07:51:34;;;;;;;4.32;2.85;;;;;;;17.05;79.71;96570.31;6295220;28;20533;-69
2023/08/09 07:54:38;;;;;;;3.88;2.88;;;;;;;17.08;79.75;96580.66;6295080;28;20533;-69
2023/08/09 07:57:43;;;;;;;5.50;3.22;;;;;;;17.15;79.49;96581.72;6295138;28;20036;-70
2023/08/09 08:00:47;;;;;;;3.50;3.20;;;;;;;17.13;79.48;96589.03;6295027;28;20161;-69
2023/08/09 08:03:50;;;;;;;8.02;5.25;;;;;;;17.08;79.52;96590.47;6294945;28;20537;-68
2023/08/09 08:06:55;;;;;;;7.20;5.82;;;;;;;17.18;79.31;96592.09;6294924;28;20566;-69
2023/08/09 08:10:00;;;;;;;12.00;8.20;;;;;;;17.23;79.31;96586.31;6295354;28;20051;-69
2023/08/09 08:13:05;;;;;;;13.30;9.25;;;;;;;17.31;77.91;96591.72;6294803;28;20406;-68
2023/08/09 08:16:10;;;;;;;12.48;9.63;;;;;;;17.25;77.90;96600.31;6294651;28;20135;-70
2023/08/09 08:19:15;;;;;;;11.45;9.65;;;;;;;17.43;77.68;96597.69;6294894;28;20066;-68
2023/08/09 08:22:20;;;;;;;13.10;9.40;;;;;;;17.53;77.08;96602.97;6294733;28;20158;-69
2023/08/09 08:25:25;;;;;;;13.77;9.27;;;;;;;17.55;76.49;96603.63;6294557;28;20162;-68
2023/08/09 08:28:30;;;;;;;9.38;8.00;;;;;;;17.62;76.26;96615.34;6294836;28;20633;-68
2023/08/09 08:31:34;;;;;;;11.40;9.32;;;;;;;17.65;76.71;96607.06;6294452;28;20153;-68
2023/08/09 08:34:40;;;;;;;16.50;11.50;;;;;;;17.74;75.84;96611.50;6294196;28;20525;-69
2023/08/09 08:37:45;;;;;;;20.35;12.88;;;;;;;17.89;75.70;96622.47;6294205;28;20131;-68
2023/08/09 08:40:49;;;;;;;13.82;10.02;;;;;;;17.98;74.90;96605.63;6294556;28;20048;-68
2023/08/09 08:43:55;;;;;;;12.25;8.18;;;;;;;18.09;75.10;96623.19;6294555;28;20150;-68
2023/08/09 08:46:59;;;;;;;10.02;7.68;;;;;;;18.17;74.89;96610.78;6294576;28;20036;-69
2023/08/09 08:50:04;;;;;;;8.25;6.50;;;;;;;18.17;74.57;96620.59;6294055;28;20407;-69
2023/08/09 08:53:11;;;;;;;10.65;6.57;;;;;;;18.27;73.63;96615.19;6293997;28;20154;-68
2023/08/09 08:56:18;;;;;;;9.98;7.63;;;;;;;18.51;73.11;96627.84;6294063;28;20162;-68
2023/08/09 08:59:23;;;;;;;8.88;6.90;;;;;;;18.69;72.15;96636.66;6294202;28;20055;-68
2023/08/09 09:02:26;;;;;;;10.45;6.75;;;;;;;18.80;71.19;96639.09;6293695;28;20162;-68
2023/08/09 09:05:32;;;;;;;13.10;4.93;;;;;;;18.80;71.18;96640.94;6293880;28;20518;-68
2023/08/09 09:08:46;;;;;;;10.65;5.50;;;;;;;18.70;71.26;96633.00;6293880;28;20076;-69
2023/08/09 09:11:53;;;;;;;6.53;4.75;;;;;;;18.78;71.22;96645.59;6294122;28;20426;-68
2023/08/09 09:14:58;;;;;;;8.63;4.93;;;;;;;18.88;70.18;96638.34;6294061;28;20628;-69
2023/08/09 09:18:06;;;;;;;11.38;5.80;;;;;;;18.99;69.27;96647.88;6293942;28;20072;-68
2023/08/09 09:21:11;;;;;;;11.45;5.93;;;;;;;19.02;68.63;96648.41;6293514;28;20168;-68
2023/08/09 09:24:13;;;;;;;8.65;5.03;;;;;;;18.98;68.91;96656.88;6294143;28;20044;-68
2023/08/09 09:27:16;;;;;;;;;;;;;;;19.07;68.76;96647.94;6294017;28;20586;-68
2023/08/09 09:30:21;;;;;;;4.88;4.40;;;;;;;19.05;68.13;96655.25;6293655;28;20070;-69
2023/08/09 09:33:34;;;;;;;7.20;5.28;;;;;;;19.21;67.20;96657.19;6293654;28;20534;-70
2023/08/09 09:36:42;;;;;;;10.05;5.90;;;;;;;19.29;66.97;96662.56;6293755;28;20103;-69
2023/08/09 09:39:47;;;;;;;9.07;5.97;;;;;;;19.55;66.17;96665.16;6293632;28;20135;-69
2023/08/09 09:42:55;;;;;;;6.93;4.65;;;;;;;19.87;64.36;96667.16;6293486;28;20632;-68
2023/08/09 09:46:01;;;;;;;4.65;3.88;;;;;;;19.92;64.40;96664.00;6293582;28;20257;-68
2023/08/09 09:49:07;;;;;;;3.58;2.95;;;;;;;19.95;63.16;96658.31;6293435;28;20586;-69
2023/08/09 09:52:12;;;;;;;5.22;3.40;;;;;;;19.97;62.70;96661.69;6293251;28;20098;-69
2023/08/09 09:55:20;;;;;;;3.85;3.15;;;;;;;20.39;62.13;96674.09;6293291;28;20074;-69
2023/08/09 09:58:25;;;;;;;4.47;3.00;;;;;;;20.84;61.30;96675.47;6293185;28;20127;-69
2023/08/09 10:01:31;;;;;;;5.43;3.53;;;;;;;21.02;60.31;96670.78;6294438;28;20102;-69
2023/08/09 10:04:36;;;;;;;3.75;2.90;;;;;;;21.13;59.75;96671.44;6297888;28;20068;-69
2023/08/09 10:07:45;;;;;;;4.85;3.00;;;;;;;21.08;59.34;96670.09;6297847;28;20092;-69
2023/08/09 10:10:51;;;;;;;5.82;2.80;;;;;;;21.02;59.10;96675.28;6298009;28;20044;-69
2023/08/09 10:14:16;;;;;;;4.53;3.03;;;;;;;20.95;59.27;96680.50;6298256;28;20048;-69
2023/08/09 10:17:25;;;;;;;7.00;2.90;;;;;;;20.74;59.90;96682.84;6297726;28;20127;-70
2023/08/09 10:20:31;;;;;;;4.03;3.00;;;;;;;20.74;61.06;96675.63;6297279;28;20072;-69
2023/08/09 10:23:36;;;;;;;7.03;3.33;;;;;;;20.87;60.18;96677.81;6297229;28;20127;-69
2023/08/09 10:26:44;;;;;;;5.85;3.63;;;;;;;20.82;60.62;96681.00;6296987;28;20174;-69
2023/08/09 10:30:05;;;;;;;6.82;4.65;;;;;;;20.88;60.02;96687.50;6297599;28;20222;-69
2023/08/09 10:33:10;;;;;;;9.20;6.03;;;;;;;20.82;59.85;96674.81;6297310;28;20529;-69
2023/08/09 10:36:32;;;;;;;10.20;5.90;;;;;;;20.85;59.78;96679.81;6297067;28;20175;-69
2023/08/09 10:39:39;;;;;;;8.98;4.38;;;;;;;20.80;59.71;96683.00;6297151;28;20074;-68
2023/08/09 10:42:47;;;;;;;7.60;4.32;;;;;;;20.88;59.76;96674.13;6297183;28;20052;-70
2023/08/09 10:45:54;;;;;;;8.55;5.05;;;;;;;21.00;59.60;96683.47;6297102;28;20102;-69
2023/08/09 10:48:59;;;;;;;10.25;5.60;;;;;;;21.18;59.15;96669.09;6293700;28;20165;-69
2023/08/09 10:52:29;;;;;;;9.95;5.45;;;;;;;21.42;58.95;96677.06;6297238;28;20046;-69
2023/08/09 10:55:36;;;;;;;6.38;4.07;;;;;;;21.60;58.43;96678.66;6297284;28;20135;-68
2023/08/09 10:58:43;;;;;;;5.88;3.38;;;;;;;21.74;58.14;96680.66;6296750;28;20159;-68
2023/08/09 11:01:50;;;;;;;3.30;2.70;;;;;;;21.81;58.45;96688.81;6296654;28;20040;-68
2023/08/09 11:04:56;;;;;;;2.78;2.15;;;;;;;22.04;58.05;96676.28;6296644;28;20068;-69
2023/08/09 11:08:09;;;;;;;4.13;2.58;;;;;;;22.45;57.50;96678.75;6296531;28;20538;-68
2023/08/09 11:11:14;;;;;;;2.42;2.15;;;;;;;22.62;56.61;96677.63;6296490;28;20131;-70
2023/08/09 11:14:21;;;;;;;4.25;1.90;;;;;;;22.61;56.41;96683.16;6296305;28;20139;-69
2023/08/09 11:17:27;;;;;;;4.07;2.30;;;;;;;22.52;56.35;96678.88;6296238;28;20599;-69
2023/08/09 11:20:31;;;;;;;3.00;2.25;;;;;;;22.48;56.72;96677.56;6296516;28;20044;-68
2023/08/09 11:23:36;;;;;;;5.20;2.45;;;;;;;22.40;56.95;96679.28;6296280;28;20337;-68
2023/08/09 11:26:55;;;;;;;8.80;3.58;;;;;;;22.44;55.61;96676.25;6295823;28;20052;-70
2023/08/09 11:30:01;;;;;;;7.28;3.78;;;;;;;22.52;55.18;96684.22;6296058;28;20040;-68
2023/08/09 11:33:11;;;;;;;6.43;3.83;;;;;;;22.78;54.24;96684.69;6278823;28;20041;-69
2023/08/09 11:36:16;;;;;;;5.63;3.42;;;;;;;23.04;53.62;96687.03;6295974;28;20420;-69
2023/08/09 11:39:23;;;;;;;5.10;2.90;;;;;;;23.25;52.72;96686.31;6295727;28;20041;-69
2023/08/09 11:42:28;;;;;;;6.35;2.80;;;;;;;23.30;52.81;96693.81;6295483;28;20132;-70
2023/08/09 11:45:42;;;;;;;5.82;3.10;;;;;;;23.23;52.70;96696.38;6295417;28;20130;-68
2023/08/09 11:48:48;;;;;;;2.92;2.55;;;;;;;23.08;53.45;96695.53;6295840;28;20131;-70
2023/08/09 11:51:53;;;;;;;7.22;2.65;;;;;;;23.09;53.11;96695.34;6294936;28;20530;-68
2023/08/09 11:55:00;;;;;;;3.75;2.35;;;;;;;23.30;52.99;96700.00;6295217;28;20097;-69
2023/08/09 11:58:05;;;;;;;4.03;2.55;;;;;;;23.40;52.86;96696.22;6295016;28;20040;-69
2023/08/09 12:01:31;;;;;;;3.95;2.38;;;;;;;23.46;53.06;96696.31;6295132;28;20415;-68
2023/08/09 12:04:39;;;;;;;5.47;3.47;;;;;;;23.27;53.31;96708.44;6292684;28;20151;-68
2023/08/09 12:07:46;;;;;;;6.13;3.17;;;;;;;23.02;53.79;96693.59;6295113;28;20068;-68
2023/08/09 12:10:52;;;;;;;3.95;3.08;;;;;;;22.86;53.27;96698.03;6294793;28;20582;-68
2023/08/09 12:13:56;;;;;;;5.93;3.05;;;;;;;22.88;52.37;96697.03;6294693;28;20123;-68
2023/08/09 12:17:01;;;;;;;4.82;2.72;;;;;;;22.82;51.29;96694.06;6294654;28;20136;-69
2023/08/09 12:20:09;;;;;;;4.43;2.67;;;;;;;22.75;51.02;96695.78;6294535;28;20102;-69
2023/08/09 12:23:14;;;;;;;3.28;2.40;;;;;;;22.63;51.30;96697.22;6294878;28;20064;-69
2023/08/09 12:26:19;;;;;;;5.20;2.72;;;;;;;22.60;51.23;96692.22;6294430;28;20087;-69
2023/08/09 12:29:24;;;;;;;5.57;2.63;;;;;;;22.56;51.22;96701.63;6294635;28;20047;-69
2023/08/09 12:32:29;;;;;;;4.72;2.63;;;;;;;22.49;51.32;96700.69;6294360;28;20048;-69
2023/08/09 12:35:34;;;;;;;6.28;3.47;;;;;;;22.41;51.08;96694.34;6294136;28;20151;-69
2023/08/09 12:38:38;;;;;;;4.32;2.80;;;;;;;22.46;50.94;96701.88;6294275;28;20135;-69
2023/08/09 12:41:43;;;;;;;6.20;3.53;;;;;;;22.56;51.00;96696.25;6294384;28;20080;-69
2023/08/09 12:44:47;;;;;;;4.97;3.28;;;;;;;22.57;50.96;96704.13;6294286;28;20132;-68
2023/08/09 12:47:52;;;;;;;5.18;3.00;;;;;;;22.36;51.27;96696.75;6276352;28;20036;-69
2023/08/09 12:50:57;;;;;;;6.68;3.13;;;;;;;22.14;51.46;96697.53;6293914;28;20064;-68
2023/08/09 12:54:02;;;;;;;4.18;2.88;;;;;;;22.00;52.00;96700.94;6294092;28;20135;-69
2023/08/09 12:57:07;;;;;;;5.57;3.10;;;;;;;21.80;52.46;96712.09;6275907;28;20082;-69
2023/08/09 13:00:12;;;;;;;5.82;3.15;;;;;;;21.69;53.18;96712.47;6293809;28;20040;-69
2023/08/09 13:03:16;;;;;;;4.22;2.58;;;;;;;21.68;52.82;96713.44;6293789;28;20131;-69
2023/08/09 13:06:21;;;;;;;4.03;2.83;;;;;;;21.64;52.92;96718.31;6276683;28;20040;-69
2023/08/09 13:09:27;;;;;;;5.15;2.75;;;;;;;21.66;52.95;96710.13;6275929;28;20068;-68
2023/08/09 13:12:32;;;;;;;4.22;2.58;;;;;;;21.64;52.82;96717.50;6293733;28;20046;-70
2023/08/09 13:15:37;;;;;;;4.82;2.58;;;;;;;21.66;52.96;96721.66;6293816;28;20110;-69
2023/08/09 13:18:44;;;;;;;7.40;3.10;;;;;;;21.74;52.80;96718.13;6294089;28;20139;-69
2023/08/09 13:21:49;;;;;;;5.35;3.08;;;;;;;21.81;52.09;96719.09;6293657;28;20071;-69
2023/08/09 13:24:54;;;;;;;3.33;2.25;;;;;;;21.98;51.30;96715.34;6275212;28;20056;-69
2023/08/09 13:27:59;;;;;;;4.22;2.45;;;;;;;22.31;50.19;96720.56;6293241;28;20613;-69
2023/08/09 13:31:04;;;;;;;4.10;2.72;;;;;;;22.60;48.99;96724.41;6293442;28;20135;-69
2023/08/09 13:34:32;;;;;;;4.93;2.58;;;;;;;22.80;49.04;96736.31;6278033;28;20060;-68
2023/08/09 13:37:40;;;;;;;6.57;2.60;;;;;;;22.86;49.09;96735.59;6296504;28;20489;-69
2023/08/09 13:40:45;;;;;;;6.53;2.35;;;;;;;22.92;48.15;96742.09;6298726;28;20041;-68
2023/08/09 13:43:50;;;;;;;4.38;2.50;;;;;;;22.82;48.40;96745.03;6298332;28;20158;-69
2023/08/09 13:46:54;;;;;;;2.70;1.90;;;;;;;22.84;48.31;96744.81;6298363;28;20095;-69
2023/08/09 13:49:59;;;;;;;3.47;2.38;;;;;;;22.86;48.27;96749.00;6298305;28;20068;-69
2023/08/09 13:53:04;;;;;;;3.30;1.95;;;;;;;22.89;48.09;96750.50;6298108;28;20040;-69
2023/08/09 13:56:15;;;;;;;3.70;2.42;;;;;;;23.02;48.14;96749.94;6297779;28;20040;-69
2023/08/09 13:59:20;;;;;;;3.20;2.63;;;;;;;23.21;48.13;96754.81;6297944;28;20158;-69
2023/08/09 14:02:25;;;;;;;8.95;3.35;;;;;;;23.37;48.13;96758.34;6298192;28;20067;-69
2023/08/09 14:05:31;;;;;;;7.13;4.43;;;;;;;23.46;48.30;96762.59;6297931;28;20131;-70
2023/08/09 14:08:36;;;;;;;7.55;3.45;;;;;;;23.46;48.97;96762.59;6297731;28;20127;-69
2023/08/09 14:11:40;;;;;;;5.78;3.03;;;;;;;23.22;48.59;96764.50;6297652;28;20041;-69
2023/08/09 14:14:45;;;;;;;7.28;3.10;;;;;;;22.89;48.75;96776.50;6297547;28;20566;-69
2023/08/09 14:17:51;;;;;;;4.65;2.88;;;;;;;22.64;48.67;96773.97;6297396;28;20072;-70
2023/08/09 14:20:56;;;;;;;4.97;2.40;;;;;;;22.48;48.64;96782.13;6297509;28;20072;-68
2023/08/09 14:24:00;;;;;;;3.38;2.45;;;;;;;22.28;48.92;96777.22;6296989;28;20135;-69
2023/08/09 14:27:05;;;;;;;4.18;2.80;;;;;;;22.12;49.50;96772.72;6296524;28;20143;-68
2023/08/09 14:30:12;;;;;;;3.80;2.30;;;;;;;21.98;49.81;96790.34;6297021;28;20068;-70
2023/08/09 14:33:19;;;;;;;2.60;2.30;;;;;;;21.80;50.90;96781.72;6297318;28;20455;-69
2023/08/09 14:36:23;;;;;;;6.05;3.78;;;;;;;21.78;51.26;96789.09;6297405;28;20423;-69
2023/08/09 14:39:27;;;;;;;6.65;4.03;;;;;;;21.90;51.35;96797.59;6297010;28;20154;-69
2023/08/09 14:42:32;;;;;;;6.38;4.00;;;;;;;22.07;51.21;96799.19;6297058;28;20131;-68
2023/08/09 14:45:37;;;;;;;5.97;4.43;;;;;;;22.15;51.10;96801.00;6296953;28;20524;-69
2023/08/09 14:48:42;;;;;;;6.18;4.13;;;;;;;22.19;51.07;96797.00;6296403;28;20131;-68